Time,TemperatureF,DewpointF,PressureIn,WindDirection,WindDirectionDegrees,WindSpeedMPH,WindSpeedGustMPH,Humidity,HourlyPrecipIn,Conditions,Clouds,dailyrainin,SoftwareType,DateUTC
2013-01-30 00:01:00,39.0,36.0,-100.00,ENE,58,1.0,3.0,90,-99.99,,,-99.99,,2013-01-30 08:01:00,
2013-01-30 00:11:00,37.0,34.0,-100.00,NE,46,3.0,4.0,90,-99.99,,,-99.99,,2013-01-30 08:11:00,
2013-01-30 00:21:00,37.0,35.0,-100.00,East,99,1.0,3.0,91,-99.99,,,-99.99,,2013-01-30 08:21:00,
2013-01-30 00:32:00,37.0,35.0,-100.00,West,262,1.0,2.0,92,-99.99,,,-99.99,,2013-01-30 08:32:00,
2013-01-30 00:41:00,38.0,36.0,-100.00,NW,311,1.0,3.0,92,-99.99,,,-99.99,,2013-01-30 08:41:00,
2013-01-30 00:52:00,38.0,36.0,-100.00,NNE,12,3.0,5.0,91,-99.99,,,-99.99,,2013-01-30 08:52:00,
2013-01-30 01:01:00,39.0,37.0,-100.00,North,11,2.0,3.0,91,-99.99,,,-99.99,,2013-01-30 09:01:00,
2013-01-30 01:11:00,39.0,36.0,-100.00,NNE,22,2.0,4.0,90,-99.99,,,-99.99,,2013-01-30 09:11:00,
2013-01-30 01:21:00,38.0,35.0,-100.00,East,86,2.0,4.0,89,-99.99,,,-99.99,,2013-01-30 09:21:00,
2013-01-30 01:31:00,37.0,34.0,-100.00,NNW,342,1.0,3.0,90,-99.99,,,-99.99,,2013-01-30 09:31:00,
2013-01-30 01:41:00,38.0,36.0,-100.00,NNE,31,2.0,4.0,91,-99.99,,,-99.99,,2013-01-30 09:41:00,
2013-01-30 01:51:00,38.0,36.0,-100.00,NNE,16,2.0,5.0,91,-99.99,,,-99.99,,2013-01-30 09:51:00,
2013-01-30 02:01:00,38.0,36.0,-100.00,WSW,242,2.0,4.0,91,-99.99,,,-99.99,,2013-01-30 10:01:00,
2013-01-30 02:11:00,38.0,36.0,-100.00,WSW,242,2.0,4.0,91,-99.99,,,-99.99,,2013-01-30 10:11:00,
2013-01-30 02:21:00,39.0,36.0,-100.00,WSW,255,3.0,5.0,90,-99.99,,,-99.99,,2013-01-30 10:21:00,
2013-01-30 02:31:00,39.0,36.0,-100.00,WSW,255,3.0,5.0,90,-99.99,,,-99.99,,2013-01-30 10:31:00,
2013-01-30 02:41:00,39.0,36.0,-100.00,WSW,255,3.0,5.0,90,-99.99,,,-99.99,,2013-01-30 10:41:00,
2013-01-30 02:52:00,41.0,37.0,-100.00,North,1,2.0,2.0,86,-99.99,,,-99.99,,2013-01-30 10:52:00,
2013-01-30 03:02:00,41.0,36.0,-100.00,NNW,333,2.0,3.0,83,-99.99,,,-99.99,,2013-01-30 11:02:00,
2013-01-30 03:11:00,41.0,36.0,-100.00,NNW,332,1.0,3.0,81,-99.99,,,-99.99,,2013-01-30 11:11:00,
2013-01-30 03:21:00,42.0,37.0,-100.00,WSW,256,2.0,4.0,82,-99.99,,,-99.99,,2013-01-30 11:21:00,
2013-01-30 03:32:00,41.0,35.0,-100.00,NNW,348,1.0,3.0,80,-99.99,,,-99.99,,2013-01-30 11:32:00,
2013-01-30 03:41:00,41.0,36.0,-100.00,North,355,2.0,3.0,83,-99.99,,,-99.99,,2013-01-30 11:41:00,
2013-01-30 03:52:00,41.0,36.0,-100.00,ENE,61,1.0,4.0,82,-99.99,,,-99.99,,2013-01-30 11:52:00,
2013-01-30 04:01:00,41.0,36.0,-100.00,NW,316,1.0,3.0,83,-99.99,,,-99.99,,2013-01-30 12:01:00,
2013-01-30 04:12:00,41.0,36.0,-100.00,NNW,345,1.0,3.0,82,-99.99,,,-99.99,,2013-01-30 12:12:00,
2013-01-30 04:21:00,41.0,36.0,-100.00,WSW,253,2.0,3.0,83,-99.99,,,-99.99,,2013-01-30 12:21:00,
2013-01-30 04:32:00,41.0,36.0,-100.00,NNE,18,2.0,3.0,82,-99.99,,,-99.99,,2013-01-30 12:32:00,
2013-01-30 04:42:00,42.0,37.0,-100.00,North,350,1.0,4.0,81,-99.99,,,-99.99,,2013-01-30 12:42:00,
2013-01-30 05:02:00,42.0,36.0,-100.00,SW,234,2.0,4.0,78,-99.99,,,-99.99,,2013-01-30 13:02:00,
2013-01-30 05:12:00,41.0,36.0,-100.00,WNW,284,2.0,4.0,81,-99.99,,,-99.99,,2013-01-30 13:12:00,
2013-01-30 05:22:00,42.0,36.0,-100.00,WSW,240,2.0,4.0,79,-99.99,,,-99.99,,2013-01-30 13:22:00,
2013-01-30 05:32:00,42.0,36.0,-100.00,SW,225,2.0,4.0,79,-99.99,,,-99.99,,2013-01-30 13:32:00,
2013-01-30 05:42:00,42.0,36.0,-100.00,West,268,3.0,9.0,79,-99.99,,,-99.99,,2013-01-30 13:42:00,
2013-01-30 05:52:00,43.0,36.0,-100.00,SSW,198,3.0,8.0,77,-99.99,,,-99.99,,2013-01-30 13:52:00,
2013-01-30 06:01:00,43.0,36.0,-100.00,SW,234,4.0,8.0,77,-99.99,,,-99.99,,2013-01-30 14:01:00,
2013-01-30 06:11:00,43.0,36.0,-100.00,North,10,3.0,6.0,76,-99.99,,,-99.99,,2013-01-30 14:11:00,
2013-01-30 06:22:00,44.0,37.0,-100.00,ENE,62,3.0,5.0,75,-99.99,,,-99.99,,2013-01-30 14:22:00,
2013-01-30 06:32:00,43.0,36.0,-100.00,North,356,1.0,3.0,75,-99.99,,,-99.99,,2013-01-30 14:32:00,
2013-01-30 06:42:00,43.0,36.0,-100.00,WNW,297,3.0,7.0,75,-99.99,,,-99.99,,2013-01-30 14:42:00,
2013-01-30 06:52:00,43.0,36.0,-100.00,SSW,201,2.0,5.0,75,-99.99,,,-99.99,,2013-01-30 14:52:00,
2013-01-30 07:02:00,42.0,35.0,-100.00,WSW,239,4.0,9.0,77,-99.99,,,-99.99,,2013-01-30 15:02:00,
2013-01-30 07:11:00,42.0,36.0,-100.00,SW,217,4.0,7.0,78,-99.99,,,-99.99,,2013-01-30 15:11:00,
2013-01-30 07:22:00,42.0,35.0,-100.00,North,6,2.0,5.0,77,-99.99,,,-99.99,,2013-01-30 15:22:00,
2013-01-30 07:32:00,44.0,35.0,-100.00,South,171,3.0,7.0,71,-99.99,,,-99.99,,2013-01-30 15:32:00,
2013-01-30 07:42:00,44.0,35.0,-100.00,ENE,60,1.0,3.0,71,-99.99,,,-99.99,,2013-01-30 15:42:00,
2013-01-30 07:52:00,45.0,36.0,-100.00,North,8,1.0,3.0,71,-99.99,,,-99.99,,2013-01-30 15:52:00,
2013-01-30 08:02:00,46.0,37.0,-100.00,SSE,150,1.0,3.0,71,-99.99,,,-99.99,,2013-01-30 16:02:00,
2013-01-30 08:12:00,46.0,37.0,-100.00,SSW,204,2.0,3.0,71,-99.99,,,-99.99,,2013-01-30 16:12:00,
2013-01-30 08:22:00,46.0,37.0,-100.00,SW,231,1.0,3.0,72,-99.99,,,-99.99,,2013-01-30 16:22:00,
2013-01-30 08:32:00,48.0,39.0,-100.00,NE,44,1.0,4.0,70,-99.99,,,-99.99,,2013-01-30 16:32:00,
2013-01-30 08:42:00,47.0,39.0,-100.00,NE,56,3.0,4.0,73,-99.99,,,-99.99,,2013-01-30 16:42:00,
2013-01-30 08:51:00,49.0,39.0,-100.00,NNE,32,1.0,3.0,68,-99.99,,,-99.99,,2013-01-30 16:51:00,
2013-01-30 09:01:00,49.0,39.0,-100.00,NNE,32,1.0,3.0,68,-99.99,,,-99.99,,2013-01-30 17:01:00,
2013-01-30 09:12:00,50.0,39.0,-100.00,NE,51,2.0,4.0,66,-99.99,,,-99.99,,2013-01-30 17:12:00,
2013-01-30 09:22:00,50.0,38.0,-100.00,ENE,59,2.0,4.0,64,-99.99,,,-99.99,,2013-01-30 17:22:00,
2013-01-30 09:31:00,52.0,39.0,-100.00,SE,141,1.0,2.0,60,-99.99,,,-99.99,,2013-01-30 17:31:00,
2013-01-30 09:42:00,52.0,38.0,-100.00,SSE,162,2.0,4.0,59,-99.99,,,-99.99,,2013-01-30 17:42:00,
2013-01-30 09:52:00,54.0,39.0,-100.00,WNW,286,1.0,4.0,57,-99.99,,,-99.99,,2013-01-30 17:52:00,
2013-01-30 10:02:00,53.0,39.0,-100.00,SSW,209,4.0,7.0,58,-99.99,,,-99.99,,2013-01-30 18:02:00,
2013-01-30 10:12:00,53.0,39.0,-100.00,South,191,6.0,8.0,58,-99.99,,,-99.99,,2013-01-30 18:12:00,
2013-01-30 10:22:00,54.0,38.0,-100.00,SSW,202,6.0,9.0,55,-99.99,,,-99.99,,2013-01-30 18:22:00,
2013-01-30 10:32:00,54.0,36.0,-100.00,SSW,194,3.0,8.0,50,-99.99,,,-99.99,,2013-01-30 18:32:00,
2013-01-30 10:42:00,55.0,38.0,-100.00,NNE,19,6.0,9.0,52,-99.99,,,-99.99,,2013-01-30 18:42:00,
2013-01-30 10:51:00,54.0,37.0,-100.00,North,4,7.0,13.0,53,-99.99,,,-99.99,,2013-01-30 18:51:00,
2013-01-30 11:02:00,55.0,37.0,-100.00,North,352,7.0,11.0,51,-99.99,,,-99.99,,2013-01-30 19:02:00,
2013-01-30 11:11:00,56.0,36.0,-100.00,NNW,339,5.0,12.0,47,-99.99,,,-99.99,,2013-01-30 19:11:00,
2013-01-30 11:21:00,59.0,34.0,-100.00,NNE,25,3.0,11.0,39,-99.99,,,-99.99,,2013-01-30 19:21:00,
2013-01-30 11:32:00,60.0,32.0,-100.00,SE,144,2.0,6.0,34,-99.99,,,-99.99,,2013-01-30 19:32:00,
2013-01-30 11:42:00,62.0,31.0,-100.00,NE,46,1.0,3.0,31,-99.99,,,-99.99,,2013-01-30 19:42:00,
2013-01-30 11:52:00,61.0,36.0,-100.00,SSW,197,4.0,10.0,39,-99.99,,,-99.99,,2013-01-30 19:52:00,
2013-01-30 12:02:00,60.0,37.0,-100.00,South,189,4.0,9.0,42,-99.99,,,-99.99,,2013-01-30 20:02:00,
2013-01-30 12:11:00,61.0,33.0,-100.00,North,10,3.0,6.0,35,-99.99,,,-99.99,,2013-01-30 20:11:00,
2013-01-30 12:21:00,61.0,32.0,-100.00,North,10,4.0,8.0,33,-99.99,,,-99.99,,2013-01-30 20:21:00,
2013-01-30 12:32:00,61.0,32.0,-100.00,NNE,17,4.0,7.0,33,-99.99,,,-99.99,,2013-01-30 20:32:00,
2013-01-30 12:42:00,62.0,32.0,-100.00,NW,315,2.0,5.0,32,-99.99,,,-99.99,,2013-01-30 20:42:00,
2013-01-30 12:52:00,63.0,33.0,-100.00,NE,52,2.0,5.0,32,-99.99,,,-99.99,,2013-01-30 20:52:00,
2013-01-30 13:02:00,63.0,31.0,-100.00,ENE,73,2.0,4.0,30,-99.99,,,-99.99,,2013-01-30 21:02:00,
2013-01-30 13:11:00,63.0,32.0,-100.00,ENE,72,3.0,6.0,31,-99.99,,,-99.99,,2013-01-30 21:11:00,
2013-01-30 13:22:00,64.0,34.0,-100.00,SSW,208,5.0,11.0,32,-99.99,,,-99.99,,2013-01-30 21:22:00,
2013-01-30 13:31:00,62.0,32.0,-100.00,SSW,201,8.0,11.0,32,-99.99,,,-99.99,,2013-01-30 21:31:00,
2013-01-30 13:42:00,63.0,33.0,-100.00,SSW,206,9.0,13.0,32,-99.99,,,-99.99,,2013-01-30 21:42:00,
2013-01-30 13:52:00,63.0,33.0,-100.00,SW,228,9.0,11.0,33,-99.99,,,-99.99,,2013-01-30 21:52:00,
2013-01-30 14:02:00,63.0,33.0,-100.00,SW,220,8.0,13.0,33,-99.99,,,-99.99,,2013-01-30 22:02:00,
2013-01-30 14:11:00,62.0,34.0,-100.00,SW,224,10.0,14.0,35,-99.99,,,-99.99,,2013-01-30 22:11:00,
2013-01-30 14:22:00,62.0,35.0,-100.00,SW,225,10.0,15.0,37,-99.99,,,-99.99,,2013-01-30 22:22:00,
2013-01-30 14:32:00,62.0,36.0,-100.00,SW,236,8.0,14.0,38,-99.99,,,-99.99,,2013-01-30 22:32:00,
2013-01-30 14:41:00,62.0,35.0,-100.00,SW,217,9.0,14.0,37,-99.99,,,-99.99,,2013-01-30 22:41:00,
2013-01-30 14:52:00,63.0,36.0,-100.00,SSW,209,6.0,11.0,36,-99.99,,,-99.99,,2013-01-30 22:52:00,
2013-01-30 15:01:00,63.0,36.0,-100.00,SW,217,8.0,12.0,36,-99.99,,,-99.99,,2013-01-30 23:01:00,
2013-01-30 15:11:00,63.0,36.0,-100.00,SW,220,9.0,14.0,37,-99.99,,,-99.99,,2013-01-30 23:11:00,
2013-01-30 15:22:00,62.0,35.0,-100.00,SSW,213,8.0,12.0,36,-99.99,,,-99.99,,2013-01-30 23:22:00,
2013-01-30 15:32:00,62.0,35.0,-100.00,SW,224,9.0,12.0,37,-99.99,,,-99.99,,2013-01-30 23:32:00,
2013-01-30 15:42:00,62.0,36.0,-100.00,SW,220,9.0,13.0,38,-99.99,,,-99.99,,2013-01-30 23:42:00,
2013-01-30 15:52:00,62.0,37.0,-100.00,SW,230,9.0,13.0,40,-99.99,,,-99.99,,2013-01-30 23:52:00,
2013-01-30 16:01:00,62.0,37.0,-100.00,SW,224,8.0,11.0,40,-99.99,,,-99.99,,2013-01-31 00:01:00,
2013-01-30 16:11:00,62.0,37.0,-100.00,SW,225,7.0,12.0,39,-99.99,,,-99.99,,2013-01-31 00:11:00,
2013-01-30 16:21:00,61.0,36.0,-100.00,SW,227,7.0,10.0,40,-99.99,,,-99.99,,2013-01-31 00:21:00,
2013-01-30 16:31:00,61.0,36.0,-100.00,SW,230,7.0,10.0,40,-99.99,,,-99.99,,2013-01-31 00:31:00,
2013-01-30 16:42:00,61.0,37.0,-100.00,SW,230,6.0,10.0,41,-99.99,,,-99.99,,2013-01-31 00:42:00,
2013-01-30 16:52:00,61.0,38.0,-100.00,WSW,238,7.0,11.0,43,-99.99,,,-99.99,,2013-01-31 00:52:00,
2013-01-30 17:01:00,61.0,38.0,-100.00,West,267,3.0,5.0,42,-99.99,,,-99.99,,2013-01-31 01:01:00,
2013-01-30 17:11:00,60.0,39.0,-100.00,WSW,246,6.0,10.0,45,-99.99,,,-99.99,,2013-01-31 01:11:00,
2013-01-30 17:21:00,60.0,40.0,-100.00,WSW,251,3.0,6.0,47,-99.99,,,-99.99,,2013-01-31 01:21:00,
2013-01-30 17:31:00,59.0,39.0,-100.00,SW,233,1.0,4.0,48,-99.99,,,-99.99,,2013-01-31 01:31:00,
2013-01-30 17:41:00,59.0,39.0,-100.00,SW,233,1.0,4.0,48,-99.99,,,-99.99,,2013-01-31 01:41:00,
2013-01-30 17:52:00,56.0,40.0,-100.00,WSW,254,2.0,4.0,54,-99.99,,,-99.99,,2013-01-31 01:52:00,
2013-01-30 18:01:00,55.0,41.0,-100.00,North,0,1.0,3.0,58,-99.99,,,-99.99,,2013-01-31 02:01:00,
2013-01-30 18:11:00,54.0,40.0,-100.00,North,1,4.0,6.0,60,-99.99,,,-99.99,,2013-01-31 02:11:00,
2013-01-30 18:21:00,54.0,41.0,-100.00,North,3,3.0,6.0,61,-99.99,,,-99.99,,2013-01-31 02:21:00,
2013-01-30 18:32:00,53.0,41.0,-100.00,North,5,3.0,5.0,63,-99.99,,,-99.99,,2013-01-31 02:32:00,
2013-01-30 18:41:00,53.0,41.0,-100.00,North,5,3.0,5.0,63,-99.99,,,-99.99,,2013-01-31 02:41:00,
2013-01-30 18:52:00,53.0,41.0,-100.00,North,5,3.0,5.0,63,-99.99,,,-99.99,,2013-01-31 02:52:00,
2013-01-30 19:02:00,52.0,39.0,-100.00,NNE,26,3.0,5.0,62,-99.99,,,-99.99,,2013-01-31 03:02:00,
2013-01-30 19:11:00,51.0,40.0,-100.00,NE,44,3.0,4.0,65,-99.99,,,-99.99,,2013-01-31 03:11:00,
2013-01-30 19:21:00,50.0,40.0,-100.00,NE,56,3.0,6.0,68,-99.99,,,-99.99,,2013-01-31 03:21:00,
2013-01-30 19:32:00,49.0,39.0,-100.00,ENE,67,5.0,5.0,69,-99.99,,,-99.99,,2013-01-31 03:32:00,
2013-01-30 19:41:00,49.0,39.0,-100.00,ENE,57,4.0,5.0,68,-99.99,,,-99.99,,2013-01-31 03:41:00,
2013-01-30 19:51:00,48.0,39.0,-100.00,ENE,57,4.0,5.0,70,-99.99,,,-99.99,,2013-01-31 03:51:00,
2013-01-30 20:02:00,50.0,39.0,-100.00,NE,45,5.0,6.0,67,-99.99,,,-99.99,,2013-01-31 04:02:00,
2013-01-30 20:11:00,50.0,39.0,-100.00,NE,49,4.0,7.0,67,-99.99,,,-99.99,,2013-01-31 04:11:00,
2013-01-30 20:22:00,47.0,39.0,-100.00,South,186,0.0,2.0,75,-99.99,,,-99.99,,2013-01-31 04:22:00,
2013-01-30 20:31:00,49.0,40.0,-100.00,NE,36,3.0,5.0,71,-99.99,,,-99.99,,2013-01-31 04:31:00,
2013-01-30 20:41:00,48.0,40.0,-100.00,NNE,14,2.0,3.0,74,-99.99,,,-99.99,,2013-01-31 04:41:00,
2013-01-30 20:51:00,47.0,39.0,-100.00,North,353,1.0,3.0,75,-99.99,,,-99.99,,2013-01-31 04:51:00,
2013-01-30 21:03:00,47.0,39.0,-100.00,North,10,1.0,3.0,75,-99.99,,,-99.99,,2013-01-31 05:03:00,
2013-01-30 21:10:00,43.0,38.0,-100.00,ENE,59,3.0,5.0,84,-99.99,,,-99.99,,2013-01-31 05:10:00,
2013-01-30 21:11:00,47.0,40.0,-100.00,NNE,14,2.0,3.0,76,-99.99,,,-99.99,,2013-01-31 05:11:00,
2013-01-30 21:21:00,44.0,37.0,-100.00,NE,51,2.0,3.0,77,-99.99,,,-99.99,,2013-01-31 05:21:00,
2013-01-30 21:31:00,44.0,37.0,-100.00,NE,51,2.0,3.0,77,-99.99,,,-99.99,,2013-01-31 05:31:00,
2013-01-30 21:41:00,43.0,38.0,-100.00,ENE,59,3.0,5.0,84,-99.99,,,-99.99,,2013-01-31 05:41:00,
2013-01-30 21:51:00,43.0,38.0,-100.00,ENE,59,3.0,5.0,84,-99.99,,,-99.99,,2013-01-31 05:51:00,
2013-01-30 22:01:00,43.0,38.0,-100.00,ENE,59,3.0,5.0,84,-99.99,,,-99.99,,2013-01-31 06:01:00,